Terminal Aerodrome Forecast
Issued by NWS

Home | Current Version | Previous Version | Text Only | Print | Product List | Glossary Off
Versions: 1 2 3 4 5 6 7 8 9 10 11 12 13 14 15 16 17

000
FTUS43 KABR 080336 AAA
TAFPIR
TAF AMD
KPIR 080336Z 0804/0824 31015KT P6SM OVC110
     FM080800 31009KT P6SM BKN120
     FM081700 31013G21KT P6SM BKN200=

USA.gov is the U.S. government's official web portal to all federal, state and local government web resources and services.